Time;durP1;ratioP1;P1;durP2;ratioP2;P2;SDS_P1;SDS_P2;PMS_P1;PMS_P2;Temp;Humidity;BMP_temperature;BMP_pressure;BME280_temperature;BME280_humidity;BME280_pressure;Samples;Min_cycle;Max_cycle;Signal;HPM_P1;HPM_P2
2021/01/24 00:00:53;;;;;;;1.77;0.98;;;19.30;40.80;;;;;;5076619;28;20064;-82
2021/01/24 00:03:19;;;;;;;1.77;1.00;;;19.30;40.80;;;;;;5039273;28;20509;-82
2021/01/24 00:05:44;;;;;;;2.30;1.13;;;19.30;40.80;;;;;;5039943;28;20021;-83
2021/01/24 00:08:14;;;;;;;1.10;0.98;;;19.30;40.80;;;;;;5050774;28;20111;-82
2021/01/24 00:10:40;;;;;;;1.83;1.25;;;19.30;40.80;;;;;;5047705;28;20021;-82
2021/01/24 00:13:05;;;;;;;2.63;1.15;;;19.20;40.80;;;;;;5039661;28;20053;-82
2021/01/24 00:15:31;;;;;;;1.52;0.90;;;19.30;40.80;;;;;;5043432;28;20025;-81
2021/01/24 00:17:57;;;;;;;2.05;0.98;;;19.20;40.80;;;;;;5046698;28;20163;-81
2021/01/24 00:20:23;;;;;;;1.30;0.90;;;19.30;40.80;;;;;;5058041;28;20020;-82
2021/01/24 00:22:48;;;;;;;2.58;1.08;;;19.30;40.80;;;;;;5059607;28;20040;-84
2021/01/24 00:25:14;;;;;;;1.30;0.88;;;19.30;40.70;;;;;;5044423;28;20100;-81
2021/01/24 00:27:40;;;;;;;2.58;1.27;;;19.30;40.80;;;;;;5066971;28;20053;-82
2021/01/24 00:30:07;;;;;;;1.45;1.17;;;19.20;40.80;;;;;;5070238;28;20033;-81
2021/01/24 00:32:33;;;;;;;1.75;1.10;;;19.20;40.80;;;;;;5065644;28;20079;-81
2021/01/24 00:34:58;;;;;;;1.65;0.90;;;19.30;41.30;;;;;;5064946;28;20029;-82
2021/01/24 00:37:24;;;;;;;1.65;0.88;;;19.20;40.80;;;;;;5066046;28;20044;-81
2021/01/24 00:39:49;;;;;;;0.90;0.75;;;19.20;40.80;;;;;;5044497;28;20029;-81
2021/01/24 00:42:15;;;;;;;1.30;1.10;;;19.20;40.80;;;;;;5035276;28;20029;-85
2021/01/24 00:44:41;;;;;;;2.88;1.00;;;19.20;40.80;;;;;;5058936;28;20057;-81
2021/01/24 00:47:06;;;;;;;1.58;1.10;;;19.20;40.80;;;;;;5055374;28;20032;-81
2021/01/24 00:49:33;;;;;;;1.40;1.05;;;19.20;40.80;;;;;;5065734;28;20429;-82
2021/01/24 00:51:58;;;;;;;2.60;0.85;;;19.20;40.80;;;;;;5049704;28;20115;-82
2021/01/24 00:54:24;;;;;;;1.40;1.00;;;19.20;40.80;;;;;;5081811;28;20402;-82
2021/01/24 00:56:49;;;;;;;2.35;1.10;;;19.20;40.80;;;;;;5045822;28;20494;-81
2021/01/24 00:59:15;;;;;;;1.40;0.95;;;19.20;40.80;;;;;;5048875;28;20024;-82
2021/01/24 01:01:41;;;;;;;1.42;0.80;;;19.20;40.80;;;;;;5044264;28;20025;-82
2021/01/24 01:04:06;;;;;;;1.50;1.10;;;19.20;40.80;;;;;;5055454;28;20021;-82
2021/01/24 01:06:32;;;;;;;1.10;0.80;;;19.20;40.60;;;;;;5050808;28;20025;-80
2021/01/24 01:08:58;;;;;;;2.38;1.10;;;19.20;40.50;;;;;;5067284;28;20029;-81
2021/01/24 01:11:24;;;;;;;1.90;1.23;;;19.20;40.60;;;;;;5050129;28;20454;-82
2021/01/24 01:13:49;;;;;;;2.00;1.13;;;19.20;40.50;;;;;;5038242;28;20040;-82
2021/01/24 01:16:15;;;;;;;1.65;1.00;;;19.10;40.50;;;;;;5038689;28;20120;-82
2021/01/24 01:18:41;;;;;;;2.03;1.17;;;19.10;40.70;;;;;;5043179;28;20036;-82
2021/01/24 01:21:06;;;;;;;3.38;0.98;;;19.10;40.50;;;;;;5041086;28;21515;-81
2021/01/24 01:23:32;;;;;;;1.90;1.17;;;19.10;40.50;;;;;;5043868;28;20017;-82
2021/01/24 01:25:58;;;;;;;1.88;1.08;;;19.10;40.50;;;;;;5051801;28;20025;-81
2021/01/24 01:28:23;;;;;;;1.50;1.17;;;19.10;40.50;;;;;;5063398;28;20104;-81
2021/01/24 01:30:49;;;;;;;1.27;0.85;;;19.10;40.50;;;;;;5060560;28;20041;-81
2021/01/24 01:33:17;;;;;;;2.17;1.00;;;19.10;40.40;;;;;;5075841;28;20089;-82
2021/01/24 01:35:43;;;;;;;1.60;1.10;;;19.10;40.50;;;;;;5069146;28;20036;-81
2021/01/24 01:38:10;;;;;;;2.25;0.70;;;19.10;40.50;;;;;;5067900;28;20029;-84
2021/01/24 01:40:36;;;;;;;1.38;0.90;;;19.10;40.50;;;;;;5049785;28;20024;-81
2021/01/24 01:43:01;;;;;;;1.25;0.95;;;19.10;40.60;;;;;;5051270;28;20031;-82
2021/01/24 01:45:27;;;;;;;1.60;0.93;;;19.10;40.70;;;;;;5040100;28;20027;-82
2021/01/24 01:47:53;;;;;;;1.10;0.70;;;19.10;40.60;;;;;;5053792;28;20580;-81
2021/01/24 01:50:20;;;;;;;1.50;0.88;;;19.10;40.70;;;;;;5046933;28;20554;-81
2021/01/24 01:52:46;;;;;;;1.42;0.90;;;19.10;40.60;;;;;;5041244;28;20112;-81
2021/01/24 01:55:13;;;;;;;1.50;0.75;;;19.10;40.70;;;;;;5058006;28;20032;-82
2021/01/24 01:57:39;;;;;;;1.40;0.70;;;19.10;40.60;;;;;;5042805;28;20056;-81
2021/01/24 02:00:09;;;;;;;1.38;0.82;;;19.10;40.70;;;;;;5059399;28;20022;-81
2021/01/24 02:03:05;;;;;;;1.75;0.95;;;19.10;40.70;;;;;;5047340;28;20020;-83
2021/01/24 02:05:45;;;;;;;1.42;0.82;;;19.10;40.70;;;;;;5044559;28;20485;-81
2021/01/24 02:08:51;;;;;;;1.85;0.98;;;19.10;40.60;;;;;;5064335;28;20039;-81
2021/01/24 02:11:25;;;;;;;1.25;0.77;;;19.10;40.70;;;;;;5047649;28;20032;-80
2021/01/24 02:13:59;;;;;;;1.42;0.85;;;19.10;40.70;;;;;;5062917;28;20017;-81
2021/01/24 02:16:27;;;;;;;1.15;0.73;;;19.00;40.70;;;;;;5063617;28;20025;-80
2021/01/24 02:18:53;;;;;;;1.00;0.75;;;19.00;40.70;;;;;;5050766;28;20048;-80
2021/01/24 02:21:28;;;;;;;1.25;0.88;;;19.00;40.70;;;;;;5047574;28;20100;-80
2021/01/24 02:23:58;;;;;;;1.25;0.85;;;19.00;40.50;;;;;;5048162;28;20070;-80
2021/01/24 02:27:01;;;;;;;1.02;0.60;;;19.00;40.40;;;;;;5060275;28;20039;-81
2021/01/24 02:29:59;;;;;;;1.30;0.80;;;19.00;40.60;;;;;;5061766;28;20024;-83
2021/01/24 02:32:26;;;;;;;1.10;0.70;;;19.00;40.70;;;;;;5024279;28;20033;-80
2021/01/24 02:35:03;;;;;;;1.00;0.70;;;19.00;40.50;;;;;;5067221;28;20032;-80
2021/01/24 02:37:30;;;;;;;1.00;0.68;;;19.00;40.60;;;;;;5052819;28;20024;-79
2021/01/24 02:39:57;;;;;;;1.65;0.95;;;19.00;40.60;;;;;;5056511;28;20025;-80
2021/01/24 02:42:24;;;;;;;1.48;0.68;;;19.00;40.50;;;;;;5078372;28;20027;-80
2021/01/24 02:44:50;;;;;;;2.20;0.52;;;19.00;40.70;;;;;;5063262;28;20043;-80
2021/01/24 02:47:16;;;;;;;1.08;0.75;;;19.00;40.60;;;;;;5079369;28;20056;-83
2021/01/24 02:49:45;;;;;;;1.20;0.68;;;19.00;40.60;;;;;;5093275;28;20041;-84
2021/01/24 02:52:13;;;;;;;1.30;0.85;;;19.00;40.50;;;;;;5068384;28;20004;-86
2021/01/24 02:54:40;;;;;;;1.00;0.60;;;19.00;40.70;;;;;;5076695;28;20017;-84
2021/01/24 02:57:06;;;;;;;0.98;0.70;;;19.00;40.60;;;;;;5051950;28;20123;-80
2021/01/24 02:59:33;;;;;;;1.30;0.70;;;18.90;40.40;;;;;;5046882;28;20082;-79
2021/01/24 03:01:59;;;;;;;1.30;0.90;;;19.00;40.50;;;;;;5058204;28;20036;-81
2021/01/24 03:04:25;;;;;;;1.35;0.50;;;18.90;40.50;;;;;;5040460;28;20024;-80
2021/01/24 03:06:50;;;;;;;1.05;0.68;;;19.00;40.60;;;;;;5044102;28;20120;-80
2021/01/24 03:09:16;;;;;;;0.98;0.60;;;19.00;40.60;;;;;;5055112;28;20028;-80
2021/01/24 03:11:46;;;;;;;1.33;0.57;;;18.90;40.50;;;;;;5058190;28;20067;-80
2021/01/24 03:14:18;;;;;;;0.93;0.57;;;18.90;40.60;;;;;;5040295;28;20025;-80
2021/01/24 03:16:48;;;;;;;2.08;0.63;;;18.90;40.60;;;;;;5039796;28;20452;-80
2021/01/24 03:19:17;;;;;;;1.33;0.80;;;18.90;40.50;;;;;;5057420;28;20520;-83
2021/01/24 03:21:44;;;;;;;1.00;0.65;;;18.90;40.60;;;;;;5064896;28;20039;-82
2021/01/24 03:24:10;;;;;;;1.13;0.93;;;18.90;40.60;;;;;;5057843;28;20055;-82
2021/01/24 03:26:36;;;;;;;1.00;0.50;;;18.90;40.60;;;;;;5041222;28;20032;-82
2021/01/24 03:29:02;;;;;;;1.30;0.80;;;18.90;40.60;;;;;;5056378;28;20021;-83
2021/01/24 03:31:31;;;;;;;0.90;0.57;;;18.90;40.60;;;;;;5041136;28;20122;-81
2021/01/24 03:33:58;;;;;;;1.92;0.77;;;18.90;40.60;;;;;;5052899;28;20555;-81
2021/01/24 03:36:23;;;;;;;1.38;0.68;;;18.90;40.60;;;;;;5049765;28;20046;-82
2021/01/24 03:38:49;;;;;;;1.23;0.60;;;18.90;40.60;;;;;;5048738;28;20021;-81
2021/01/24 03:41:14;;;;;;;2.80;0.63;;;18.90;40.50;;;;;;5080980;28;20028;-84
2021/01/24 03:43:40;;;;;;;1.77;0.65;;;18.90;40.40;;;;;;5042865;28;20028;-83
2021/01/24 03:46:06;;;;;;;0.93;0.52;;;18.90;40.50;;;;;;5062692;28;20039;-84
2021/01/24 03:48:32;;;;;;;0.70;0.50;;;18.90;40.50;;;;;;5048869;28;20029;-83
2021/01/24 03:50:58;;;;;;;1.13;0.90;;;18.90;40.50;;;;;;5045699;28;20029;-82
2021/01/24 03:53:42;;;;;;;1.23;0.65;;;18.90;40.50;;;;;;5065815;28;20043;-82
2021/01/24 03:56:26;;;;;;;1.40;0.80;;;18.90;40.80;;;;;;5056615;28;20048;-82
2021/01/24 03:58:54;;;;;;;0.80;0.60;;;18.90;40.60;;;;;;5052442;28;20024;-83
2021/01/24 04:01:20;;;;;;;0.95;0.60;;;18.90;40.50;;;;;;5039777;28;20120;-85
2021/01/24 04:03:45;;;;;;;0.90;0.60;;;18.90;40.50;;;;;;5085039;28;20086;-83
2021/01/24 04:06:11;;;;;;;1.40;0.70;;;18.90;40.50;;;;;;5039430;28;20028;-83
2021/01/24 04:08:37;;;;;;;1.38;0.90;;;18.90;40.60;;;;;;5044888;28;20037;-83
2021/01/24 04:11:03;;;;;;;1.23;0.50;;;18.80;40.50;;;;;;5044754;28;20041;-83
2021/01/24 04:13:29;;;;;;;0.98;0.63;;;18.80;40.40;;;;;;5065978;28;20033;-83
2021/01/24 04:15:54;;;;;;;1.15;0.75;;;18.80;40.50;;;;;;5039022;28;20094;-82
2021/01/24 04:18:20;;;;;;;1.20;0.70;;;18.80;40.40;;;;;;5068345;28;20025;-82
2021/01/24 04:20:46;;;;;;;1.95;0.85;;;18.80;40.50;;;;;;5047319;28;20021;-83
2021/01/24 04:23:12;;;;;;;1.10;0.50;;;18.80;40.50;;;;;;5059058;28;20029;-82
2021/01/24 04:25:38;;;;;;;1.17;0.52;;;18.80;40.40;;;;;;5053784;28;20052;-83
2021/01/24 04:28:04;;;;;;;1.33;0.98;;;18.80;41.10;;;;;;5068087;28;20028;-82
2021/01/24 04:30:30;;;;;;;1.10;0.40;;;18.80;40.50;;;;;;5032215;28;20135;-83
2021/01/24 04:32:55;;;;;;;1.73;0.80;;;18.80;40.50;;;;;;5055186;28;20041;-82
2021/01/24 04:35:22;;;;;;;1.02;0.90;;;18.80;40.60;;;;;;5038402;28;20021;-81
2021/01/24 04:37:48;;;;;;;0.95;0.70;;;18.80;40.50;;;;;;5042791;28;20013;-83
2021/01/24 04:40:13;;;;;;;1.15;0.77;;;18.80;40.60;;;;;;5058626;28;20021;-82
2021/01/24 04:42:39;;;;;;;1.77;0.77;;;18.80;40.60;;;;;;5076594;28;20024;-82
2021/01/24 04:45:07;;;;;;;0.80;0.55;;;18.80;40.40;;;;;;5058581;28;20059;-81
2021/01/24 04:47:33;;;;;;;1.35;0.82;;;18.80;40.50;;;;;;5091786;28;20024;-80
2021/01/24 04:49:59;;;;;;;3.03;0.73;;;18.80;40.50;;;;;;5061640;28;20037;-80
2021/01/24 04:52:25;;;;;;;0.98;0.60;;;18.80;40.40;;;;;;5053795;28;20444;-80
2021/01/24 04:54:52;;;;;;;1.60;0.90;;;18.80;40.40;;;;;;5070035;28;20108;-80
2021/01/24 04:57:19;;;;;;;1.38;0.93;;;18.80;40.30;;;;;;5042015;28;20119;-82
2021/01/24 04:59:45;;;;;;;1.60;1.05;;;18.80;40.30;;;;;;5059873;28;20017;-80
2021/01/24 05:02:13;;;;;;;1.33;0.93;;;18.70;40.30;;;;;;5042523;28;20029;-81
2021/01/24 05:04:38;;;;;;;1.50;0.80;;;18.70;40.30;;;;;;5022492;28;20022;-80
2021/01/24 05:07:04;;;;;;;1.50;0.85;;;18.70;40.40;;;;;;5036792;28;20111;-82
2021/01/24 05:09:30;;;;;;;1.52;1.08;;;18.70;40.30;;;;;;5067793;28;20021;-81
2021/01/24 05:11:56;;;;;;;1.10;0.82;;;18.70;40.10;;;;;;5062740;28;20428;-79
2021/01/24 05:14:25;;;;;;;1.42;0.85;;;18.70;40.30;;;;;;5072393;28;20033;-81
2021/01/24 05:16:55;;;;;;;1.23;0.93;;;18.70;40.20;;;;;;5083224;28;20052;-81
2021/01/24 05:19:22;;;;;;;1.77;0.93;;;18.70;40.30;;;;;;5071778;28;20052;-81
2021/01/24 05:21:48;;;;;;;1.05;0.88;;;18.70;40.30;;;;;;5054076;28;20094;-80
2021/01/24 05:24:16;;;;;;;1.42;1.33;;;18.70;40.20;;;;;;5054358;28;20132;-79
2021/01/24 05:26:44;;;;;;;1.10;0.70;;;18.70;40.30;;;;;;5062379;28;20131;-81
2021/01/24 05:29:27;;;;;;;1.38;1.00;;;18.70;40.20;;;;;;5064714;28;20025;-80
2021/01/24 05:31:56;;;;;;;1.30;0.85;;;18.70;40.20;;;;;;5048938;28;20029;-82
2021/01/24 05:34:25;;;;;;;1.73;0.80;;;18.70;40.10;;;;;;5064886;28;20029;-81
2021/01/24 05:36:58;;;;;;;1.88;1.13;;;18.70;40.20;;;;;;5065082;28;21559;-80
2021/01/24 05:39:24;;;;;;;2.03;1.20;;;18.70;40.10;;;;;;5039134;28;20055;-82
2021/01/24 05:41:52;;;;;;;2.08;1.00;;;18.70;40.20;;;;;;5051821;28;20378;-81
2021/01/24 05:44:20;;;;;;;1.48;1.00;;;18.70;40.10;;;;;;5066708;28;20036;-82
2021/01/24 05:46:46;;;;;;;1.38;0.85;;;18.70;40.20;;;;;;5079647;28;20024;-83
2021/01/24 05:49:13;;;;;;;1.27;1.10;;;18.70;40.10;;;;;;5042412;28;20124;-81
2021/01/24 05:51:39;;;;;;;1.50;1.02;;;18.70;40.20;;;;;;5045315;28;20070;-85
2021/01/24 05:54:05;;;;;;;1.35;1.13;;;18.70;40.20;;;;;;5047391;28;20448;-82
2021/01/24 05:56:31;;;;;;;2.38;1.33;;;18.60;40.10;;;;;;5066410;28;20036;-82
2021/01/24 05:59:01;;;;;;;2.22;1.20;;;18.60;40.10;;;;;;5060671;28;20075;-82
2021/01/24 06:01:29;;;;;;;1.35;0.82;;;18.60;40.00;;;;;;5083820;28;20592;-81
2021/01/24 06:03:58;;;;;;;1.25;0.95;;;18.60;40.00;;;;;;5050820;28;20020;-81
2021/01/24 06:06:24;;;;;;;2.28;1.45;;;18.60;40.00;;;;;;5040799;28;20553;-83
2021/01/24 06:08:50;;;;;;;1.58;0.90;;;18.60;40.10;;;;;;5040677;28;20372;-82
2021/01/24 06:11:17;;;;;;;3.03;1.23;;;18.60;39.90;;;;;;5059534;28;20078;-82
2021/01/24 06:13:46;;;;;;;1.50;0.88;;;18.60;40.00;;;;;;5055065;28;20073;-81
2021/01/24 06:16:13;;;;;;;1.52;0.88;;;18.60;40.00;;;;;;5054260;28;20037;-82
2021/01/24 06:18:48;;;;;;;2.03;1.00;;;18.60;40.00;;;;;;5048037;28;20051;-82
2021/01/24 06:21:18;;;;;;;2.40;0.98;;;18.60;39.90;;;;;;5048679;28;20104;-82
2021/01/24 06:23:53;;;;;;;1.63;0.80;;;18.50;39.90;;;;;;5068509;28;20032;-79
2021/01/24 06:26:21;;;;;;;2.13;1.33;;;18.60;40.00;;;;;;5063643;28;20029;-80
2021/01/24 06:28:49;;;;;;;1.65;1.00;;;18.50;40.00;;;;;;5040497;28;20025;-79
2021/01/24 06:31:17;;;;;;;1.10;0.70;;;18.60;40.00;;;;;;5041135;28;20063;-83
2021/01/24 06:33:50;;;;;;;1.45;0.98;;;18.50;39.90;;;;;;5053722;28;20483;-79
2021/01/24 06:36:16;;;;;;;1.30;0.90;;;18.50;39.90;;;;;;5058568;28;20067;-79
2021/01/24 06:38:43;;;;;;;1.92;1.08;;;18.50;39.90;;;;;;5061157;28;20039;-79
2021/01/24 06:41:11;;;;;;;1.77;0.95;;;18.50;39.90;;;;;;5077826;28;20494;-78
2021/01/24 06:43:48;;;;;;;2.17;0.80;;;18.50;39.80;;;;;;5042973;28;20021;-79
2021/01/24 06:46:26;;;;;;;1.15;0.95;;;18.50;39.90;;;;;;5061130;28;20040;-78
2021/01/24 06:48:53;;;;;;;2.08;1.13;;;18.50;39.80;;;;;;5047815;28;20029;-79
2021/01/24 06:51:42;;;;;;;1.50;0.90;;;18.50;39.90;;;;;;5048053;28;20077;-81
2021/01/24 06:54:28;;;;;;;1.52;1.02;;;18.50;39.90;;;;;;5060451;28;20090;-80
2021/01/24 06:57:06;;;;;;;1.30;0.52;;;18.50;39.90;;;;;;5047871;28;20473;-79
2021/01/24 06:59:32;;;;;;;1.80;1.08;;;18.50;40.30;;;;;;5040981;28;20397;-79
2021/01/24 07:02:22;;;;;;;1.48;0.88;;;18.50;39.90;;;;;;5081595;28;20033;-80
2021/01/24 07:05:09;;;;;;;1.58;1.08;;;18.50;39.90;;;;;;5051061;28;20024;-84
2021/01/24 07:07:37;;;;;;;1.52;0.93;;;18.50;39.90;;;;;;5053301;28;20487;-82
2021/01/24 07:10:06;;;;;;;1.42;0.95;;;18.40;39.90;;;;;;5081403;28;20074;-82
2021/01/24 07:12:37;;;;;;;0.90;0.60;;;18.50;39.90;;;;;;5061875;28;20133;-82
2021/01/24 07:15:20;;;;;;;1.13;0.73;;;18.40;39.90;;;;;;5046682;28;20032;-84
2021/01/24 07:17:56;;;;;;;0.95;0.52;;;18.40;39.80;;;;;;5047299;28;20025;-82
2021/01/24 07:20:22;;;;;;;1.27;0.90;;;18.40;39.90;;;;;;5062347;28;20405;-81
2021/01/24 07:22:49;;;;;;;1.50;0.63;;;18.40;39.90;;;;;;5063695;28;20021;-81
2021/01/24 07:25:16;;;;;;;1.27;1.00;;;18.40;39.80;;;;;;5064030;28;20029;-82
2021/01/24 07:27:43;;;;;;;1.35;0.68;;;18.40;39.90;;;;;;5042271;28;20072;-82
2021/01/24 07:30:10;;;;;;;0.82;0.40;;;18.40;39.90;;;;;;5065024;28;20029;-81
2021/01/24 07:32:39;;;;;;;2.13;0.70;;;18.40;39.90;;;;;;5065289;28;20139;-83
2021/01/24 07:35:05;;;;;;;1.00;0.40;;;18.40;40.00;;;;;;5048713;28;20043;-82
2021/01/24 07:37:31;;;;;;;0.93;0.40;;;18.40;40.00;;;;;;5046423;28;20028;-82
2021/01/24 07:39:57;;;;;;;1.02;0.70;;;18.40;39.90;;;;;;5062217;28;20028;-81
2021/01/24 07:42:23;;;;;;;0.68;0.45;;;18.40;40.00;;;;;;5070556;28;20039;-83
2021/01/24 07:44:49;;;;;;;1.60;0.80;;;18.40;39.90;;;;;;5043503;28;20029;-82
2021/01/24 07:47:15;;;;;;;1.40;0.70;;;18.40;39.90;;;;;;5048467;28;20024;-83
2021/01/24 07:49:41;;;;;;;1.50;0.80;;;18.40;39.90;;;;;;5041994;28;20045;-83
2021/01/24 07:52:07;;;;;;;1.13;0.40;;;18.40;39.90;;;;;;5043724;28;20021;-85
2021/01/24 07:54:34;;;;;;;1.00;0.45;;;18.40;39.90;;;;;;5066311;28;20025;-84
2021/01/24 07:57:00;;;;;;;1.75;0.60;;;18.40;40.30;;;;;;5058729;28;20115;-81
2021/01/24 07:59:26;;;;;;;1.25;0.80;;;18.40;39.80;;;;;;5046842;28;20024;-83
2021/01/24 08:01:53;;;;;;;1.20;0.70;;;18.40;39.80;;;;;;5058901;28;20458;-83
2021/01/24 08:04:22;;;;;;;0.90;0.50;;;18.40;39.90;;;;;;5046946;28;20044;-81
2021/01/24 08:06:49;;;;;;;0.80;0.40;;;18.40;39.90;;;;;;5062491;28;20501;-83
2021/01/24 08:09:17;;;;;;;2.33;0.70;;;18.40;40.00;;;;;;5060176;28;20475;-81
2021/01/24 08:11:42;;;;;;;1.50;0.70;;;18.40;39.80;;;;;;5045473;28;20052;-82
2021/01/24 08:14:08;;;;;;;2.40;0.88;;;18.40;39.90;;;;;;5048055;28;20009;-85
2021/01/24 08:16:39;;;;;;;1.67;0.70;;;18.40;39.90;;;;;;5046778;28;20073;-81
2021/01/24 08:19:07;;;;;;;1.45;0.70;;;18.30;40.00;;;;;;5081211;22;20048;-50
2021/01/24 08:21:33;;;;;;;1.10;0.50;;;18.30;40.40;;;;;;5059012;28;20074;-45
2021/01/24 08:24:00;;;;;;;1.08;0.55;;;18.30;40.40;;;;;;5059778;28;20044;-46
2021/01/24 08:26:27;;;;;;;1.70;0.43;;;18.30;40.50;;;;;;5059586;28;20079;-46
2021/01/24 08:28:53;;;;;;;2.58;0.50;;;18.30;40.50;;;;;;5061601;28;20025;-47
2021/01/24 08:31:20;;;;;;;0.88;0.50;;;18.30;40.60;;;;;;5063972;28;20021;-46
2021/01/24 08:33:50;;;;;;;1.27;0.40;;;18.30;40.70;;;;;;5064949;28;20029;-50
2021/01/24 08:36:21;;;;;;;0.80;0.45;;;18.30;40.70;;;;;;5063989;28;20107;-50
2021/01/24 08:38:47;;;;;;;0.82;0.32;;;18.30;40.70;;;;;;5063009;28;20064;-49
2021/01/24 08:41:15;;;;;;;1.85;0.43;;;18.30;40.70;;;;;;5063382;28;20090;-48
2021/01/24 08:43:41;;;;;;;1.98;0.63;;;18.30;40.70;;;;;;5063645;28;20028;-46
2021/01/24 08:46:26;;;;;;;1.13;0.50;;;18.30;40.70;;;;;;5062089;28;20482;-47
2021/01/24 08:49:07;;;;;;;1.38;0.55;;;18.30;40.70;;;;;;5062812;28;20063;-49
2021/01/24 08:51:47;;;;;;;1.38;0.40;;;18.30;40.70;;;;;;5064365;28;20155;-48
2021/01/24 08:54:23;;;;;;;1.00;0.55;;;18.30;40.60;;;;;;5063480;28;20051;-48
2021/01/24 08:56:50;;;;;;;1.23;0.52;;;18.30;40.40;;;;;;5064247;28;20029;-48
2021/01/24 08:59:26;;;;;;;1.42;0.50;;;18.30;40.40;;;;;;5063275;28;20062;-49
2021/01/24 09:01:54;;;;;;;1.25;0.60;;;18.30;40.10;;;;;;5063183;28;20032;-50
2021/01/24 09:04:30;;;;;;;3.15;1.00;;;18.30;40.10;;;;;;5065178;28;20059;-48
2021/01/24 09:07:05;;;;;;;2.33;0.45;;;18.30;40.10;;;;;;5063220;28;20037;-49
2021/01/24 09:09:31;;;;;;;1.20;0.50;;;18.30;40.10;;;;;;5064454;28;20024;-47
2021/01/24 09:11:58;;;;;;;2.33;0.73;;;18.30;40.20;;;;;;5044657;28;20036;-47
2021/01/24 09:14:24;;;;;;;2.25;0.90;;;18.30;40.10;;;;;;5063701;28;20122;-47
2021/01/24 09:17:01;;;;;;;11.20;0.77;;;18.30;40.10;;;;;;5061582;28;20029;-48
2021/01/24 09:19:27;;;;;;;1.52;0.70;;;18.30;40.20;;;;;;5063857;28;20075;-48
2021/01/24 09:21:53;;;;;;;2.38;1.05;;;18.30;40.20;;;;;;5062543;28;20075;-51
2021/01/24 09:24:19;;;;;;;1.20;0.65;;;18.30;40.20;;;;;;5063198;28;20037;-47
2021/01/24 09:26:45;;;;;;;1.10;0.50;;;18.30;40.10;;;;;;5061099;28;20029;-47
2021/01/24 09:29:12;;;;;;;1.58;0.85;;;18.30;40.10;;;;;;5062495;28;20108;-50
2021/01/24 09:31:38;;;;;;;1.95;0.80;;;18.30;40.00;;;;;;5063785;28;20078;-47
2021/01/24 09:34:03;;;;;;;2.42;0.73;;;18.30;40.00;;;;;;5061905;28;20028;-48
2021/01/24 09:36:29;;;;;;;3.90;0.63;;;18.30;40.00;;;;;;5061877;28;20025;-47
2021/01/24 09:38:54;;;;;;;2.45;0.80;;;18.30;40.00;;;;;;5063042;28;20025;-46
2021/01/24 09:41:20;;;;;;;1.80;1.05;;;18.20;39.90;;;;;;5062423;28;20029;-49
2021/01/24 09:43:45;;;;;;;1.27;0.70;;;18.20;39.90;;;;;;5064494;28;20021;-47
2021/01/24 09:46:11;;;;;;;2.20;0.80;;;18.30;40.00;;;;;;5061614;28;20065;-48
2021/01/24 09:48:36;;;;;;;1.23;0.70;;;18.30;39.90;;;;;;5063750;28;20044;-46
2021/01/24 09:51:04;;;;;;;1.70;0.73;;;18.30;39.90;;;;;;5063884;28;20391;-50
2021/01/24 09:53:30;;;;;;;1.13;0.60;;;18.30;39.90;;;;;;5059901;22;20046;-44
2021/01/24 09:55:56;;;;;;;1.10;0.60;;;18.30;39.90;;;;;;5038788;28;20105;-46
2021/01/24 09:58:22;;;;;;;2.70;0.80;;;18.20;39.90;;;;;;5043834;28;20461;-45
2021/01/24 10:00:47;;;;;;;1.65;0.98;;;18.30;39.90;;;;;;5041897;28;20538;-43
2021/01/24 10:03:13;;;;;;;1.40;0.60;;;18.20;39.90;;;;;;5055640;28;20025;-44
2021/01/24 10:05:41;;;;;;;2.97;0.90;;;18.20;39.90;;;;;;5043632;28;20115;-46
2021/01/24 10:08:06;;;;;;;3.25;0.60;;;18.20;39.90;;;;;;5059543;28;20036;-45
2021/01/24 10:10:32;;;;;;;0.98;0.80;;;18.20;40.00;;;;;;5061919;28;20029;-45
2021/01/24 10:12:58;;;;;;;1.00;0.70;;;18.20;39.90;;;;;;5059910;28;20029;-45
2021/01/24 10:15:23;;;;;;;1.27;0.80;;;18.20;39.90;;;;;;5059699;28;20036;-45
2021/01/24 10:17:49;;;;;;;1.23;0.60;;;18.20;39.90;;;;;;5060261;28;20035;-45
2021/01/24 10:20:14;;;;;;;1.40;0.80;;;18.20;39.90;;;;;;5060946;28;20060;-44
2021/01/24 10:22:40;;;;;;;1.92;0.77;;;18.20;40.00;;;;;;5043090;28;20392;-45
2021/01/24 10:25:06;;;;;;;2.00;0.63;;;18.20;40.00;;;;;;5062035;28;20033;-45
2021/01/24 10:27:32;;;;;;;1.30;0.80;;;18.20;40.00;;;;;;5060784;28;20036;-45
2021/01/24 10:29:57;;;;;;;2.90;0.80;;;18.20;40.10;;;;;;5059625;28;20040;-44
2021/01/24 10:32:23;;;;;;;2.60;0.95;;;18.20;40.10;;;;;;5061993;28;20025;-44
2021/01/24 10:34:48;;;;;;;1.15;0.80;;;18.20;40.00;;;;;;5059410;28;20028;-46
2021/01/24 10:37:14;;;;;;;1.60;1.00;;;18.20;40.00;;;;;;5059113;28;20128;-46
2021/01/24 10:39:39;;;;;;;3.05;1.20;;;18.20;40.00;;;;;;5060519;28;20061;-44
2021/01/24 10:42:05;;;;;;;2.40;1.10;;;18.20;40.00;;;;;;5059590;28;20048;-43
2021/01/24 10:44:32;;;;;;;1.17;0.77;;;18.20;40.00;;;;;;5060161;28;20074;-45
2021/01/24 10:46:58;;;;;;;2.65;0.93;;;18.20;40.10;;;;;;5060886;28;20095;-46
2021/01/24 10:49:23;;;;;;;4.03;1.75;;;18.20;40.00;;;;;;5060975;28;20029;-44
2021/01/24 10:51:49;;;;;;;2.53;1.67;;;18.20;40.00;;;;;;5061966;28;20525;-43
2021/01/24 10:54:14;;;;;;;1.83;1.10;;;18.20;40.00;;;;;;5059659;28;20063;-44
2021/01/24 10:56:40;;;;;;;2.38;1.00;;;18.20;40.10;;;;;;5059240;28;20078;-44
2021/01/24 10:59:08;;;;;;;3.17;0.80;;;18.20;40.10;;;;;;5058849;28;20028;-44
2021/01/24 11:01:34;;;;;;;1.83;1.17;;;18.20;40.10;;;;;;5040370;28;20029;-44
2021/01/24 11:04:00;;;;;;;2.17;1.15;;;18.20;40.10;;;;;;5060700;28;20512;-44
2021/01/24 11:06:25;;;;;;;2.03;1.27;;;18.20;40.00;;;;;;5060903;28;20040;-44
2021/01/24 11:08:51;;;;;;;2.50;1.35;;;18.20;40.20;;;;;;5060946;28;20059;-45
2021/01/24 11:11:16;;;;;;;1.55;0.82;;;18.20;40.00;;;;;;5058927;28;20040;-45
2021/01/24 11:13:42;;;;;;;2.17;1.02;;;18.20;40.00;;;;;;5060525;28;20638;-45
2021/01/24 11:16:07;;;;;;;1.75;1.63;;;18.20;40.10;;;;;;5062657;28;20505;-47
2021/01/24 11:18:33;;;;;;;4.95;1.42;;;18.20;40.10;;;;;;5065272;28;20044;-45
2021/01/24 11:20:59;;;;;;;2.03;1.20;;;18.20;40.00;;;;;;5064738;28;20043;-46
2021/01/24 11:23:24;;;;;;;2.85;1.52;;;18.10;39.90;;;;;;5060489;28;20029;-46
2021/01/24 11:25:50;;;;;;;1.27;0.68;;;18.20;40.10;;;;;;5059373;28;20035;-45
2021/01/24 11:28:15;;;;;;;1.58;0.90;;;18.20;40.00;;;;;;5059455;28;20371;-46
2021/01/24 11:30:41;;;;;;;2.63;0.80;;;18.20;40.00;;;;;;5056744;28;20053;-44
2021/01/24 11:33:06;;;;;;;3.38;1.10;;;18.20;40.10;;;;;;5058596;28;20143;-46
2021/01/24 11:35:32;;;;;;;1.20;1.00;;;18.10;40.00;;;;;;5062255;28;20048;-44
2021/01/24 11:37:58;;;;;;;1.95;0.70;;;18.20;40.10;;;;;;5054810;28;20025;-45
2021/01/24 11:40:23;;;;;;;1.83;1.48;;;18.20;40.00;;;;;;5059969;28;20103;-43
2021/01/24 11:42:49;;;;;;;1.42;1.17;;;18.20;40.00;;;;;;5060505;28;20048;-45
2021/01/24 11:45:14;;;;;;;2.20;1.08;;;18.20;40.00;;;;;;5060509;28;20181;-45
2021/01/24 11:47:40;;;;;;;2.75;1.58;;;18.20;40.00;;;;;;5060222;28;20404;-44
2021/01/24 11:50:06;;;;;;;3.15;1.13;;;18.20;40.00;;;;;;5059341;28;20036;-46
2021/01/24 11:52:32;;;;;;;1.40;1.30;;;18.10;40.00;;;;;;5061269;28;20426;-46
2021/01/24 11:54:57;;;;;;;1.38;1.00;;;18.20;40.00;;;;;;5058595;28;20031;-47
2021/01/24 11:57:23;;;;;;;1.75;1.02;;;18.20;40.00;;;;;;5059966;28;20064;-46
2021/01/24 11:59:48;;;;;;;2.22;1.25;;;18.20;40.10;;;;;;5060774;28;20443;-45
2021/01/24 12:02:14;;;;;;;1.95;1.33;;;18.10;40.00;;;;;;5058175;28;20032;-47
2021/01/24 12:04:39;;;;;;;2.05;1.35;;;18.20;40.10;;;;;;5059537;28;20497;-42
2021/01/24 12:07:06;;;;;;;2.00;1.10;;;18.10;40.00;;;;;;5040362;28;20020;-42
2021/01/24 12:09:31;;;;;;;1.77;0.98;;;18.20;40.10;;;;;;5058803;28;20378;-44
2021/01/24 12:11:57;;;;;;;3.25;1.00;;;18.20;40.00;;;;;;5060187;28;20031;-45
2021/01/24 12:14:22;;;;;;;2.08;1.17;;;18.10;40.00;;;;;;5056210;28;20371;-45
2021/01/24 12:16:48;;;;;;;1.95;1.05;;;18.10;39.90;;;;;;5058151;28;20114;-45
2021/01/24 12:19:14;;;;;;;2.25;1.00;;;18.10;39.80;;;;;;5058993;28;20117;-44
2021/01/24 12:21:39;;;;;;;1.55;1.10;;;18.10;39.80;;;;;;5059708;28;20533;-45
2021/01/24 12:24:07;;;;;;;2.55;1.23;;;18.10;39.90;;;;;;5057556;28;20086;-46
2021/01/24 12:26:32;;;;;;;2.03;0.98;;;18.10;39.80;;;;;;5057981;28;20036;-45
2021/01/24 12:28:58;;;;;;;2.03;1.13;;;18.10;40.30;;;;;;5056717;28;20029;-45
2021/01/24 12:31:23;;;;;;;3.55;1.10;;;18.20;40.10;;;;;;5056415;28;20032;-43
2021/01/24 12:33:49;;;;;;;2.03;1.02;;;18.30;39.90;;;;;;5059583;28;20028;-47
2021/01/24 12:36:15;;;;;;;1.60;1.13;;;18.50;40.20;;;;;;5058209;28;20502;-45
2021/01/24 12:38:40;;;;;;;2.10;1.15;;;18.60;39.40;;;;;;5060278;28;20591;-46
2021/01/24 12:41:06;;;;;;;2.20;1.30;;;18.80;39.10;;;;;;5059583;28;20036;-46
2021/01/24 12:43:31;;;;;;;1.40;1.00;;;18.90;39.00;;;;;;5055689;28;20091;-45
2021/01/24 12:45:57;;;;;;;1.92;1.20;;;18.90;38.80;;;;;;5058244;28;20033;-46
2021/01/24 12:48:23;;;;;;;2.95;1.50;;;19.00;38.60;;;;;;5057002;28;20033;-45
2021/01/24 12:50:49;;;;;;;2.03;1.00;;;19.10;38.60;;;;;;5060440;28;20032;-45